Granbury, Texas
Current Conditions -  °F | °C
As of 6:55 PM on Monday 22 Dec 2014 (Local Time) from KGDJ Reporting Station
Clear Clear  
Wind Chill: 56°   Ceiling: Unl
Heat Index: 56°   Visibility: 10mi
Dew Point: 43°   Wind: 8mph
Humidity: 63%   Direction: 240°WSW
Pressure: 29.7"   Gusts: NA
Location:  32.44°N, 97.79°W
Report Text: KGDJ 230055Z AUTO 24007KT 10SM CLR 13/06 A2970 RMK AO2 T01320062
Loading
Personal Weather Stations






























Interactive Weather Map New forecast layout! Learn more

10-Day Weather Forecast

Advertisements
Track Severe Weather on mobile